Loudonville, New York
Current Conditions -  °F | °C
As of 6:51 AM on Monday 24 Nov 2014 (Local Time) from KALB Reporting Station
Drizzle Drizzle  
Wind Chill: 44°   Ceiling: 1200
Heat Index: 47°   Visibility: 1mi
Dew Point: 45°   Wind: 6mph
Humidity: 93%   Direction: 220°SW
Pressure: 29.61"   Gusts: NA
Location:  42.71°N, 73.75°W
Report Text: KALB 241151Z 22005KT 1SM R01/P6000FT -DZ BR FEW007 BKN012 OVC023 08/07 A2961 RMK AO2 SFC VIS 1 1/2 RAE34DZB04E13B34 SLP029 VIS 1V2 P0003 60014 70014 T00830072 10111 20078 56056
Loading
Personal Weather Stations






























Interactive Weather Map New forecast layout! Learn more

10-Day Weather Forecast

Advertisements
Track Severe Weather on mobile